createdAt,value
2016-10-25T00:00:32.160Z,993.15
2016-10-25T00:01:42.518Z,993.15
2016-10-25T00:02:52.880Z,993.15
2016-10-25T00:04:03.235Z,993.15
2016-10-25T00:29:04.034Z,993.46
2016-10-25T00:30:14.384Z,993.46
2016-10-25T00:31:24.733Z,993.46
2016-10-25T00:32:35.083Z,993.46
2016-10-25T00:33:45.435Z,993.46
2016-10-25T00:34:55.787Z,993.46
2016-10-25T00:36:06.140Z,993.46
2016-10-25T00:37:16.494Z,993.46
2016-10-25T00:38:26.851Z,993.46
2016-10-25T00:39:37.204Z,993.46
2016-10-25T00:40:47.558Z,993.46
2016-10-25T00:41:57.915Z,993.46
2016-10-25T00:43:08.272Z,993.46
2016-10-25T00:44:18.627Z,993.46
2016-10-25T00:45:28.983Z,993.46
2016-10-25T00:46:39.335Z,993.46
2016-10-25T00:47:49.692Z,993.46
2016-10-25T00:49:00.049Z,993.46
2016-10-25T00:50:10.404Z,993.46
2016-10-25T00:51:20.766Z,993.46
2016-10-25T00:52:31.120Z,993.46
2016-10-25T00:53:41.476Z,993.46
2016-10-25T00:54:51.834Z,993.46
2016-10-25T00:56:02.187Z,993.46
2016-10-25T00:57:12.549Z,993.46
2016-10-25T01:30:11.944Z,0
2016-10-25T01:31:22.296Z,0
2016-10-25T01:32:32.647Z,0
2016-10-25T01:33:42.997Z,0
2016-10-25T01:34:53.345Z,0
2016-10-25T01:36:03.697Z,0
2016-10-25T01:37:14.051Z,0
2016-10-25T01:38:24.403Z,0
2016-10-25T01:39:34.758Z,0
2016-10-25T01:40:45.111Z,0
2016-10-25T01:41:55.465Z,0
2016-10-25T01:43:05.821Z,0
2016-10-25T01:44:16.175Z,0
2016-10-25T01:45:26.537Z,0
2016-10-25T01:46:36.889Z,0
2016-10-25T01:47:47.242Z,0
2016-10-25T01:48:57.601Z,0
2016-10-25T01:50:07.959Z,0
2016-10-25T01:51:18.315Z,0
2016-10-25T01:52:28.672Z,0
2016-10-25T01:53:39.028Z,0
2016-10-25T01:54:49.386Z,0
2016-10-25T02:28:48.763Z,0
2016-10-25T02:29:59.108Z,0
2016-10-25T02:31:09.455Z,0
2016-10-25T02:32:19.802Z,0
2016-10-25T02:33:30.156Z,0
2016-10-25T02:34:40.507Z,0
2016-10-25T02:35:50.858Z,0
2016-10-25T02:37:01.217Z,0
2016-10-25T02:38:11.570Z,0
2016-10-25T02:39:21.919Z,0
2016-10-25T02:40:32.272Z,0
2016-10-25T02:41:42.623Z,0
2016-10-25T02:42:52.978Z,0
2016-10-25T02:44:03.335Z,0
2016-10-25T02:45:13.690Z,0
2016-10-25T02:46:24.046Z,0
2016-10-25T02:47:34.401Z,0
2016-10-25T02:48:44.757Z,0
2016-10-25T02:49:55.111Z,0
2016-10-25T02:51:05.470Z,0
2016-10-25T02:52:15.825Z,0
2016-10-25T02:53:26.179Z,0
2016-10-25T02:54:36.539Z,0
2016-10-25T02:55:46.893Z,0
2016-10-25T02:56:57.248Z,0
2016-10-25T02:58:07.604Z,0
2016-10-25T02:59:17.961Z,0
2016-10-25T03:00:28.312Z,0
2016-10-25T03:01:38.676Z,0
2016-10-25T03:02:49.034Z,0
2016-10-25T03:29:02.971Z,0
2016-10-25T03:30:13.317Z,0
2016-10-25T03:31:23.665Z,0
2016-10-25T03:32:34.013Z,0
2016-10-25T03:33:44.365Z,0
2016-10-25T03:34:54.715Z,0
2016-10-25T03:36:05.066Z,0
2016-10-25T03:37:15.416Z,0
2016-10-25T03:38:25.772Z,0
2016-10-25T03:39:36.125Z,0
2016-10-25T03:40:46.483Z,0
2016-10-25T03:41:56.831Z,0
2016-10-25T03:43:07.181Z,0
2016-10-25T03:44:17.533Z,0
2016-10-25T03:45:27.883Z,0
2016-10-25T03:46:38.239Z,0
2016-10-25T03:47:48.593Z,0
2016-10-25T03:48:58.949Z,0
2016-10-25T03:50:09.310Z,0
2016-10-25T03:51:19.665Z,0
2016-10-25T03:52:30.026Z,0
2016-10-25T03:53:40.394Z,0
2016-10-25T03:54:50.768Z,0
2016-10-25T03:56:01.107Z,0
2016-10-25T03:57:11.462Z,0
2016-10-25T03:58:21.821Z,0
2016-10-25T03:59:32.178Z,0
2016-10-25T04:00:42.534Z,0
2016-10-25T04:01:52.892Z,0
2016-10-25T04:03:03.244Z,0
2016-10-25T04:29:10.471Z,996
2016-10-25T04:30:20.818Z,996
2016-10-25T04:31:31.167Z,996
2016-10-25T04:32:41.515Z,996
2016-10-25T04:33:51.868Z,996
2016-10-25T04:35:02.218Z,996
2016-10-25T04:36:12.570Z,996
2016-10-25T04:37:22.926Z,996
2016-10-25T04:38:33.279Z,996
2016-10-25T04:39:43.631Z,996
2016-10-25T04:40:53.989Z,996
2016-10-25T04:42:04.341Z,996
2016-10-25T04:43:14.697Z,996
2016-10-25T04:44:25.055Z,996
2016-10-25T04:45:35.413Z,996
2016-10-25T04:46:45.763Z,996
2016-10-25T04:47:56.124Z,996
2016-10-25T04:49:06.483Z,996
2016-10-25T04:50:16.845Z,996
2016-10-25T04:51:27.202Z,996
2016-10-25T04:52:37.566Z,996
2016-10-25T04:53:47.920Z,996
2016-10-25T04:54:58.276Z,996
2016-10-25T04:56:08.633Z,996
2016-10-25T04:57:18.995Z,996
2016-10-25T04:58:29.353Z,996
2016-10-25T04:59:39.713Z,996
2016-10-25T05:00:50.070Z,996
2016-10-25T05:02:00.436Z,996
2016-10-25T05:03:10.796Z,996
2016-10-25T05:28:40.466Z,996.93
2016-10-25T05:29:50.860Z,996.96
2016-10-25T05:31:01.208Z,996.96
2016-10-25T05:32:11.558Z,996.96
2016-10-25T05:33:21.907Z,996.96
2016-10-25T05:34:32.260Z,996.96
2016-10-25T05:35:42.612Z,996.96
2016-10-25T05:36:52.963Z,996.96
2016-10-25T05:38:03.316Z,996.96
2016-10-25T05:39:13.668Z,996.96
2016-10-25T05:40:24.024Z,996.96
2016-10-25T05:41:34.379Z,996.96
2016-10-25T05:42:44.734Z,996.96
2016-10-25T05:43:55.091Z,996.96
2016-10-25T05:45:05.443Z,996.96
2016-10-25T05:46:15.797Z,996.96
2016-10-25T05:47:26.153Z,996.96
2016-10-25T05:48:36.514Z,996.96
2016-10-25T05:49:46.873Z,996.96
2016-10-25T05:50:57.230Z,996.96
2016-10-25T05:52:07.589Z,996.96
2016-10-25T05:53:17.949Z,996.96
2016-10-25T05:54:28.303Z,996.96
2016-10-25T05:55:38.660Z,996.96
2016-10-25T05:56:49.017Z,996.96
2016-10-25T05:58:01.128Z,996.96
2016-10-25T05:59:13.178Z,996.96
2016-10-25T06:02:34.374Z,996.96
2016-10-25T06:30:59.229Z,0
2016-10-25T06:33:48.998Z,0
2016-10-25T06:40:00.413Z,0
2016-10-25T07:28:44.090Z,998.59
2016-10-25T08:28:21.933Z,0
2016-10-25T08:29:32.283Z,0
2016-10-25T08:30:42.631Z,0
2016-10-25T08:31:52.984Z,0
2016-10-25T08:33:03.331Z,0
2016-10-25T08:34:13.672Z,0
2016-10-25T08:35:24.038Z,0
2016-10-25T08:36:34.391Z,0
2016-10-25T08:37:44.744Z,0
2016-10-25T08:38:55.104Z,0
2016-10-25T08:40:05.461Z,0
2016-10-25T08:41:15.817Z,0
2016-10-25T08:42:26.174Z,0
2016-10-25T08:43:36.531Z,0
2016-10-25T08:44:46.882Z,0
2016-10-25T08:45:57.241Z,0
2016-10-25T08:47:07.599Z,0
2016-10-25T08:48:17.954Z,0
2016-10-25T08:49:28.316Z,0
2016-10-25T08:50:38.671Z,0
2016-10-25T08:51:49.030Z,0
2016-10-25T08:52:59.387Z,0
2016-10-25T08:54:09.739Z,0
2016-10-25T08:55:20.100Z,0
2016-10-25T09:28:18.911Z,0
2016-10-25T09:29:29.248Z,0
2016-10-25T09:30:39.597Z,0
2016-10-25T09:31:49.945Z,0
2016-10-25T09:33:00.295Z,0
2016-10-25T09:34:10.649Z,0
2016-10-25T09:35:21.002Z,0
2016-10-25T09:36:31.357Z,0
2016-10-25T09:37:41.706Z,0
2016-10-25T10:28:15.924Z,0
2016-10-25T10:29:26.266Z,0
2016-10-25T10:30:36.747Z,0
2016-10-25T10:31:26.859Z,0
2016-10-25T10:32:37.206Z,0
2016-10-25T11:27:58.527Z,999.81
2016-10-25T11:29:08.920Z,999.85
2016-10-25T11:30:19.316Z,999.81
2016-10-25T11:31:29.711Z,999.83
2016-10-25T11:32:40.106Z,999.8
2016-10-25T11:33:50.628Z,999.8
2016-10-25T11:35:00.990Z,999.8
2016-10-25T11:36:11.346Z,999.8
2016-10-25T11:37:21.701Z,999.8
2016-10-25T11:38:32.071Z,999.8
2016-10-25T11:39:42.480Z,999.8
2016-10-25T11:40:52.838Z,999.8
2016-10-25T11:42:03.199Z,999.8
2016-10-25T11:43:13.547Z,999.8
2016-10-25T11:44:23.922Z,999.8
2016-10-25T11:45:34.278Z,999.8
2016-10-25T11:46:44.640Z,999.8
2016-10-25T11:47:55.031Z,999.8
2016-10-25T11:49:05.373Z,999.8
2016-10-25T11:50:15.733Z,999.8
2016-10-25T11:51:26.096Z,999.8
2016-10-25T11:52:36.451Z,999.8
2016-10-25T11:53:46.808Z,999.8
2016-10-25T11:54:57.167Z,999.8
2016-10-25T11:56:07.528Z,999.8
2016-10-25T11:57:17.894Z,999.8
2016-10-25T11:58:28.243Z,999.8
2016-10-25T11:59:38.599Z,999.8
2016-10-25T12:00:48.963Z,999.8
2016-10-25T12:01:59.318Z,999.8
2016-10-25T12:03:09.665Z,999.8
2016-10-25T12:28:24.666Z,0
2016-10-25T12:29:35.013Z,0
2016-10-25T12:30:45.363Z,0
2016-10-25T12:31:55.711Z,0
2016-10-25T12:33:06.061Z,0
2016-10-25T12:34:16.398Z,0
2016-10-25T12:35:27.284Z,0
2016-10-25T12:36:37.639Z,0
2016-10-25T13:28:31.811Z,0
2016-10-25T13:29:42.160Z,0
2016-10-25T13:30:52.513Z,0
2016-10-25T14:28:26.974Z,0
2016-10-25T14:29:37.321Z,0
2016-10-25T14:30:47.673Z,0
2016-10-25T14:31:58.020Z,0
2016-10-25T14:33:08.368Z,0
2016-10-25T15:28:25.430Z,0
2016-10-25T15:29:35.788Z,0
2016-10-25T15:30:46.134Z,0
2016-10-25T15:31:56.486Z,0
2016-10-25T15:33:06.837Z,0
2016-10-25T15:34:17.189Z,0
2016-10-25T15:35:27.551Z,0
2016-10-25T15:36:37.905Z,0
2016-10-25T15:37:48.257Z,0
2016-10-25T15:38:58.610Z,0
2016-10-25T15:40:08.967Z,0
2016-10-25T15:41:19.323Z,0
2016-10-25T15:42:29.679Z,0
2016-10-25T15:43:40.038Z,0
2016-10-25T15:44:50.390Z,0
2016-10-25T15:46:00.748Z,0
2016-10-25T15:47:11.108Z,0
2016-10-25T15:48:21.464Z,0
2016-10-25T15:49:31.823Z,0
2016-10-25T15:50:42.181Z,0
2016-10-25T15:51:52.532Z,0
2016-10-25T15:53:02.892Z,0
2016-10-25T15:54:13.250Z,0
2016-10-25T15:55:23.602Z,0
2016-10-25T15:56:33.963Z,0
2016-10-25T15:57:44.323Z,0
2016-10-25T15:58:54.684Z,0
2016-10-25T16:00:05.039Z,0
2016-10-25T16:01:15.395Z,0
2016-10-25T16:02:25.753Z,0
2016-10-25T16:28:23.818Z,1001.55
2016-10-25T17:28:19.272Z,1002.12
2016-10-25T17:29:29.672Z,1002.12
2016-10-25T17:30:40.054Z,1002.11
2016-10-25T17:31:50.480Z,1002.15
2016-10-25T17:33:00.845Z,1002.14
2016-10-25T17:34:11.250Z,1002.18
2016-10-25T18:28:42.089Z,1002.58
2016-10-25T18:29:52.489Z,1002.61
2016-10-25T18:31:02.888Z,1002.6
2016-10-25T18:32:13.291Z,1002.58
2016-10-25T19:28:56.324Z,1002.87
2016-10-25T19:30:06.853Z,1002.87
2016-10-25T19:31:17.243Z,1002.89
2016-10-25T19:32:27.674Z,1002.88
2016-10-25T19:33:38.080Z,1002.88
2016-10-25T19:34:48.477Z,1002.85
2016-10-25T19:35:58.863Z,1002.89
2016-10-25T19:37:09.270Z,1002.87
2016-10-25T19:38:19.680Z,1002.87
2016-10-25T19:39:29.983Z,1002.81
2016-10-25T19:40:40.387Z,1002.84
2016-10-25T19:41:50.801Z,1002.86
2016-10-25T19:43:01.190Z,1002.84
2016-10-25T19:44:11.592Z,1002.88
2016-10-25T19:45:22.008Z,1002.84
2016-10-25T19:46:32.407Z,1002.87
2016-10-25T19:47:42.822Z,1002.83
2016-10-25T19:48:53.473Z,1002.85
2016-10-25T19:50:03.877Z,1002.84
2016-10-25T19:51:14.302Z,1002.88
2016-10-25T19:52:24.580Z,1002.88
2016-10-25T19:56:02.606Z,0
2016-10-25T19:57:12.958Z,0
2016-10-25T20:08:25.212Z,1003
2016-10-25T20:09:35.681Z,1003.05
